Time;durP1;ratioP1;P1;durP2;ratioP2;P2;SDS_P1;SDS_P2;PMS_P1;PMS_P2;Temp;Humidity;BMP_temperature;BMP_pressure;BME280_temperature;BME280_humidity;BME280_pressure;Samples;Min_cycle;Max_cycle;Signal;HPM_P1;HPM_P2
2023/09/19 00:00:21;;;;;;;7.65;2.50;;;13.70;99.90;;;;;;5033556;28;20045;-69
2023/09/19 00:02:59;;;;;;;11.75;2.78;;;13.70;99.90;;;;;;5051507;28;20073;-69
2023/09/19 00:05:27;;;;;;;11.23;2.47;;;13.80;99.90;;;;;;5051881;28;20041;-69
2023/09/19 00:07:55;;;;;;;10.02;2.00;;;13.70;99.90;;;;;;5051247;28;20041;-69
2023/09/19 00:10:24;;;;;;;11.38;2.92;;;13.70;99.90;;;;;;5051532;28;20045;-69
2023/09/19 00:12:58;;;;;;;10.63;2.28;;;13.70;99.90;;;;;;5032248;28;20041;-69
2023/09/19 00:15:30;;;;;;;16.35;3.08;;;13.70;99.90;;;;;;5051680;28;20478;-69
2023/09/19 00:17:56;;;;;;;10.77;2.55;;;13.70;99.90;;;;;;5033738;28;20567;-69
2023/09/19 00:20:23;;;;;;;13.32;3.35;;;13.70;99.90;;;;;;5033115;28;20132;-69
2023/09/19 00:22:51;;;;;;;9.60;2.53;;;13.80;99.90;;;;;;5017123;28;20394;-69
2023/09/19 00:25:17;;;;;;;9.25;3.05;;;13.80;99.90;;;;;;5033498;28;20048;-67
2023/09/19 00:27:44;;;;;;;7.88;2.67;;;13.90;99.90;;;;;;5033099;28;20041;-67
2023/09/19 00:30:21;;;;;;;13.93;2.95;;;13.90;99.90;;;;;;5033627;28;20063;-66
2023/09/19 00:32:54;;;;;;;9.10;3.10;;;13.90;99.90;;;;;;5033932;28;20419;-67
2023/09/19 00:35:27;;;;;;;8.73;2.60;;;13.90;99.90;;;;;;5016614;28;20134;-67
2023/09/19 00:37:53;;;;;;;6.65;2.35;;;13.90;99.90;;;;;;5033620;28;20068;-67
2023/09/19 00:40:21;;;;;;;8.38;2.47;;;13.90;99.90;;;;;;5033138;28;20041;-67
2023/09/19 00:42:48;;;;;;;10.45;2.50;;;13.80;99.90;;;;;;5032979;28;20048;-67
2023/09/19 00:45:15;;;;;;;14.10;2.97;;;13.80;99.90;;;;;;5033352;28;20033;-67
2023/09/19 00:47:48;;;;;;;8.68;2.40;;;13.80;99.90;;;;;;5033207;28;20040;-69
2023/09/19 00:50:17;;;;;;;10.38;2.70;;;13.70;99.90;;;;;;5033527;28;20134;-68
2023/09/19 00:52:43;;;;;;;15.75;3.92;;;13.70;99.90;;;;;;5030148;28;20077;-68
2023/09/19 00:55:11;;;;;;;9.30;3.00;;;13.70;99.90;;;;;;5016479;28;20390;-68
2023/09/19 00:57:43;;;;;;;9.18;3.28;;;13.60;99.90;;;;;;5033076;28;20044;-68
2023/09/19 01:00:14;;;;;;;10.23;2.70;;;13.60;99.90;;;;;;5033640;28;20045;-68
2023/09/19 01:02:44;;;;;;;8.52;3.47;;;13.60;99.90;;;;;;5036029;28;20048;-68
2023/09/19 01:05:12;;;;;;;12.00;3.20;;;13.50;99.90;;;;;;5020156;28;20130;-68
2023/09/19 01:07:40;;;;;;;10.30;2.85;;;13.40;99.90;;;;;;5036976;28;20072;-68
2023/09/19 01:10:10;;;;;;;12.95;3.83;;;13.40;99.90;;;;;;5019507;28;20521;-68
2023/09/19 01:12:47;;;;;;;11.10;2.55;;;13.40;99.90;;;;;;5036598;28;20485;-68
2023/09/19 01:15:16;;;;;;;8.48;3.10;;;13.30;99.90;;;;;;5037106;28;20041;-68
2023/09/19 01:17:51;;;;;;;10.10;2.67;;;13.30;99.90;;;;;;5019023;28;20443;-68
2023/09/19 01:20:26;;;;;;;7.82;2.70;;;13.30;99.90;;;;;;5036629;28;20084;-68
2023/09/19 01:23:10;;;;;;;;;;;13.20;99.90;;;;;;5036940;28;20509;-68
2023/09/19 01:26:05;;;;;;;7.57;2.60;;;13.10;99.90;;;;;;5036801;28;19917;-68
2023/09/19 01:28:57;;;;;;;9.23;2.75;;;13.00;99.90;;;;;;5036631;28;20053;-68
2023/09/19 01:31:24;;;;;;;11.32;2.53;;;13.00;99.90;;;;;;5035676;28;20091;-68
2023/09/19 01:33:57;;;;;;;9.95;2.60;;;12.90;99.90;;;;;;5036451;28;20124;-68
2023/09/19 01:36:23;;;;;;;9.40;2.53;;;12.90;99.90;;;;;;5036206;28;20036;-68
2023/09/19 01:38:51;;;;;;;7.78;2.60;;;12.90;99.90;;;;;;5019037;28;20091;-68
2023/09/19 01:41:33;;;;;;;10.00;2.35;;;12.90;99.90;;;;;;5035854;28;20048;-68
2023/09/19 01:44:03;;;;;;;10.07;2.92;;;12.90;99.90;;;;;;5036376;28;20120;-68
2023/09/19 01:46:40;;;;;;;7.63;2.45;;;12.90;99.90;;;;;;5019595;28;20470;-69
2023/09/19 01:49:22;;;;;;;10.73;2.45;;;12.90;99.90;;;;;;5054097;28;20505;-68
2023/09/19 01:51:51;;;;;;;12.27;2.92;;;12.90;99.90;;;;;;5035001;28;20098;-68
2023/09/19 01:54:26;;;;;;;8.73;2.30;;;12.90;99.90;;;;;;5035777;28;20056;-68
2023/09/19 01:57:05;;;;;;;10.57;2.55;;;13.00;99.90;;;;;;5053832;28;20098;-69
2023/09/19 01:59:41;;;;;;;9.27;2.47;;;12.90;99.90;;;;;;5035005;28;20086;-68
2023/09/19 02:02:08;;;;;;;6.85;2.08;;;12.90;99.90;;;;;;5035942;28;20069;-68
2023/09/19 02:04:34;;;;;;;11.02;2.33;;;13.00;99.90;;;;;;5035572;28;20056;-68
2023/09/19 02:07:01;;;;;;;8.75;2.28;;;13.00;99.90;;;;;;5035450;28;20072;-68
2023/09/19 02:09:27;;;;;;;10.77;2.30;;;12.90;99.90;;;;;;5019447;28;20044;-68
2023/09/19 02:11:52;;;;;;;8.82;2.58;;;12.90;99.90;;;;;;5035187;28;20123;-68
2023/09/19 02:14:19;;;;;;;8.20;2.67;;;13.00;99.90;;;;;;5035251;28;20123;-68
2023/09/19 02:16:45;;;;;;;7.63;2.58;;;12.90;99.90;;;;;;5035636;28;20489;-68
2023/09/19 02:19:11;;;;;;;9.68;2.10;;;13.00;99.90;;;;;;5035221;28;20432;-68
2023/09/19 02:21:39;;;;;;;7.07;2.30;;;13.00;99.90;;;;;;5053390;28;20025;-68
2023/09/19 02:24:07;;;;;;;6.68;2.20;;;12.90;99.90;;;;;;5036090;28;20387;-68
2023/09/19 02:26:35;;;;;;;6.47;1.80;;;13.00;99.90;;;;;;5034882;28;20047;-68
2023/09/19 02:29:03;;;;;;;6.05;1.85;;;13.00;99.90;;;;;;5035637;28;20049;-68
2023/09/19 02:31:29;;;;;;;8.07;1.98;;;13.00;99.90;;;;;;5034710;28;20077;-68
2023/09/19 02:33:56;;;;;;;10.25;2.70;;;13.10;99.90;;;;;;5018458;28;20124;-68
2023/09/19 02:36:23;;;;;;;8.20;2.42;;;13.10;99.90;;;;;;5053313;28;20048;-68
2023/09/19 02:38:49;;;;;;;8.70;2.88;;;13.20;99.90;;;;;;5018784;28;20106;-68
2023/09/19 02:41:15;;;;;;;7.57;2.17;;;13.30;99.90;;;;;;5034314;28;20460;-68
2023/09/19 02:43:42;;;;;;;11.52;2.75;;;13.30;99.90;;;;;;5034806;28;20140;-68
2023/09/19 02:46:08;;;;;;;11.07;2.10;;;13.30;99.90;;;;;;5018784;28;20418;-68
2023/09/19 02:48:35;;;;;;;6.25;1.90;;;13.40;99.90;;;;;;5017806;28;20114;-67
2023/09/19 02:51:03;;;;;;;11.80;2.83;;;13.40;99.90;;;;;;5034374;28;20084;-65
2023/09/19 02:53:30;;;;;;;6.82;1.92;;;13.40;99.90;;;;;;5033828;28;20044;-67
2023/09/19 02:55:56;;;;;;;8.00;2.33;;;13.30;99.90;;;;;;5033948;28;20045;-70
2023/09/19 02:58:23;;;;;;;9.90;2.90;;;13.30;99.90;;;;;;5035051;28;20075;-70
2023/09/19 03:00:49;;;;;;;10.23;2.10;;;13.20;99.90;;;;;;5034646;28;20383;-70
2023/09/19 03:03:18;;;;;;;9.57;2.42;;;13.20;99.90;;;;;;5051182;28;20037;-70
2023/09/19 03:05:47;;;;;;;13.93;3.88;;;13.20;99.90;;;;;;5017986;28;20041;-69
2023/09/19 03:08:14;;;;;;;7.20;2.20;;;13.10;99.90;;;;;;5018211;28;20041;-69
2023/09/19 03:10:40;;;;;;;10.13;2.65;;;13.10;99.90;;;;;;5033809;28;20045;-69
2023/09/19 03:13:09;;;;;;;6.78;2.22;;;13.00;99.90;;;;;;5034859;28;20484;-69
2023/09/19 03:15:38;;;;;;;14.18;3.20;;;13.00;99.90;;;;;;5051660;28;20044;-69
2023/09/19 03:18:05;;;;;;;7.43;2.50;;;12.90;99.90;;;;;;5044205;28;20513;-69
2023/09/19 03:20:30;;;;;;;9.55;3.08;;;12.80;99.90;;;;;;5048654;28;20037;-69
2023/09/19 03:22:57;;;;;;;8.73;2.30;;;12.80;99.90;;;;;;5032666;28;20037;-69
2023/09/19 03:25:23;;;;;;;11.27;3.58;;;12.80;99.90;;;;;;5034564;28;20088;-68
2023/09/19 03:27:48;;;;;;;17.73;3.63;;;12.70;99.90;;;;;;5017922;28;20470;-69
2023/09/19 03:30:14;;;;;;;12.55;2.40;;;12.70;99.90;;;;;;5049889;28;20077;-68
2023/09/19 03:32:46;;;;;;;7.05;2.60;;;12.70;99.90;;;;;;5034490;28;20040;-68
2023/09/19 03:35:13;;;;;;;10.25;2.53;;;12.60;99.90;;;;;;5034213;28;20049;-68
2023/09/19 03:37:40;;;;;;;11.05;3.25;;;12.60;99.90;;;;;;5033370;28;20041;-68
2023/09/19 03:40:07;;;;;;;9.82;2.38;;;12.60;99.90;;;;;;5034016;28;20083;-68
2023/09/19 03:42:35;;;;;;;8.65;2.28;;;12.60;99.90;;;;;;5051903;28;20032;-68
2023/09/19 03:45:04;;;;;;;9.05;2.78;;;12.60;99.90;;;;;;5033207;28;20045;-69
2023/09/19 03:47:29;;;;;;;10.82;2.20;;;12.60;99.90;;;;;;5051277;28;20041;-69
2023/09/19 03:49:55;;;;;;;9.07;3.05;;;12.60;99.90;;;;;;5034275;28;20548;-69
2023/09/19 03:52:21;;;;;;;7.07;2.15;;;12.60;99.90;;;;;;5016827;28;20048;-68
2023/09/19 03:54:46;;;;;;;11.43;2.35;;;12.70;99.90;;;;;;5033500;28;20044;-69
2023/09/19 03:57:15;;;;;;;14.15;2.50;;;12.70;99.90;;;;;;5033982;28;20040;-69
2023/09/19 03:59:42;;;;;;;9.13;2.70;;;12.70;99.90;;;;;;5033360;28;20045;-69
2023/09/19 04:02:13;;;;;;;14.07;2.10;;;12.80;99.90;;;;;;5033904;28;20048;-69
2023/09/19 04:04:38;;;;;;;10.65;2.35;;;12.80;99.90;;;;;;5033402;28;20052;-68
2023/09/19 04:07:04;;;;;;;9.18;2.40;;;12.80;99.90;;;;;;5033213;28;20041;-69
2023/09/19 04:09:30;;;;;;;10.93;2.75;;;12.80;99.90;;;;;;5033498;28;20120;-68
2023/09/19 04:11:56;;;;;;;10.68;2.85;;;12.70;99.90;;;;;;5033325;28;20167;-68
2023/09/19 04:14:21;;;;;;;8.35;2.30;;;12.70;99.90;;;;;;5033834;28;20153;-68
2023/09/19 04:16:47;;;;;;;6.30;1.77;;;12.70;99.90;;;;;;5033150;28;20439;-68
2023/09/19 04:19:14;;;;;;;8.65;3.03;;;12.70;99.90;;;;;;5033093;28;20076;-68
2023/09/19 04:21:40;;;;;;;8.57;2.33;;;12.70;99.90;;;;;;5034028;28;20432;-68
2023/09/19 04:24:06;;;;;;;9.32;2.60;;;12.70;99.90;;;;;;5017151;28;20048;-68
2023/09/19 04:26:32;;;;;;;9.10;2.20;;;12.70;99.90;;;;;;5015958;28;20040;-68
2023/09/19 04:28:58;;;;;;;9.25;2.97;;;12.80;99.90;;;;;;5033687;28;20134;-68
2023/09/19 04:31:24;;;;;;;9.95;2.60;;;12.80;99.90;;;;;;5033586;28;20069;-68
2023/09/19 04:33:49;;;;;;;8.13;2.55;;;12.80;99.90;;;;;;5032900;28;20052;-68
2023/09/19 04:36:15;;;;;;;10.77;2.80;;;12.90;99.90;;;;;;5036562;28;20048;-68
2023/09/19 04:38:41;;;;;;;12.50;3.72;;;12.90;99.90;;;;;;5037445;28;20120;-68
2023/09/19 04:41:06;;;;;;;9.40;2.60;;;12.90;99.90;;;;;;5054592;28;20466;-68
2023/09/19 04:43:32;;;;;;;7.95;2.45;;;13.00;99.90;;;;;;5037480;28;20486;-68
2023/09/19 04:46:00;;;;;;;14.30;3.50;;;13.00;99.90;;;;;;5037270;28;20501;-68
2023/09/19 04:48:26;;;;;;;5.80;2.40;;;13.00;99.90;;;;;;5036370;28;20547;-68
2023/09/19 04:50:51;;;;;;;10.35;2.65;;;13.00;99.90;;;;;;5037117;28;20041;-68
2023/09/19 04:53:20;;;;;;;9.52;2.33;;;13.00;99.90;;;;;;5020859;28;20040;-68
2023/09/19 04:55:49;;;;;;;8.32;2.25;;;13.10;99.90;;;;;;5036232;28;20053;-68
2023/09/19 04:58:15;;;;;;;7.20;2.30;;;13.10;99.90;;;;;;5037266;28;20051;-68
2023/09/19 05:00:41;;;;;;;7.05;2.42;;;13.10;99.90;;;;;;5036077;28;20037;-68
2023/09/19 05:03:08;;;;;;;6.95;2.28;;;13.10;99.90;;;;;;5035868;28;20045;-69
2023/09/19 05:05:34;;;;;;;10.88;2.83;;;13.20;99.90;;;;;;5036032;28;20116;-68
2023/09/19 05:08:00;;;;;;;15.07;3.15;;;13.20;99.90;;;;;;5054331;28;20119;-68
2023/09/19 05:10:26;;;;;;;10.02;2.90;;;13.20;99.90;;;;;;5019620;28;20428;-68
2023/09/19 05:12:55;;;;;;;10.13;2.40;;;13.30;99.90;;;;;;5037000;28;20048;-68
2023/09/19 05:15:21;;;;;;;8.95;2.03;;;13.30;99.90;;;;;;5036373;28;20541;-68
2023/09/19 05:17:51;;;;;;;9.98;2.58;;;13.30;99.90;;;;;;5036656;28;20049;-68
2023/09/19 05:20:32;;;;;;;10.82;2.50;;;13.40;99.90;;;;;;5020441;28;20049;-68
2023/09/19 05:23:07;;;;;;;8.68;2.40;;;13.40;99.90;;;;;;5036711;28;20187;-68
2023/09/19 05:25:38;;;;;;;14.35;3.30;;;13.40;99.90;;;;;;5036933;28;20509;-68
2023/09/19 05:28:05;;;;;;;6.10;2.10;;;13.40;99.90;;;;;;5036829;28;20043;-68
2023/09/19 05:30:43;;;;;;;13.82;3.05;;;13.40;99.90;;;;;;5053787;28;20120;-68
2023/09/19 05:33:09;;;;;;;12.32;3.08;;;13.40;99.90;;;;;;5036490;28;20079;-68
2023/09/19 05:35:39;;;;;;;9.30;2.30;;;13.50;99.90;;;;;;5036180;28;20036;-68
2023/09/19 05:38:08;;;;;;;9.82;2.95;;;13.50;99.90;;;;;;5036120;28;20079;-68
2023/09/19 05:40:35;;;;;;;12.50;2.50;;;13.50;99.90;;;;;;5036224;28;20052;-69
2023/09/19 05:43:05;;;;;;;14.13;2.70;;;13.50;99.90;;;;;;5036345;28;20033;-69
2023/09/19 05:45:31;;;;;;;9.15;2.30;;;13.50;99.90;;;;;;5035380;28;20045;-68
2023/09/19 05:48:08;;;;;;;8.90;2.60;;;13.50;99.90;;;;;;5035422;28;20486;-68
2023/09/19 05:50:34;;;;;;;15.48;3.38;;;13.60;99.90;;;;;;5035327;28;20119;-68
2023/09/19 05:52:59;;;;;;;11.95;2.85;;;13.60;99.90;;;;;;5036353;28;20065;-68
2023/09/19 05:55:25;;;;;;;10.98;2.97;;;13.60;99.90;;;;;;5016325;28;20041;-69
2023/09/19 05:57:51;;;;;;;7.57;2.00;;;13.60;99.90;;;;;;5015514;28;20045;-69
2023/09/19 06:00:22;;;;;;;9.25;2.42;;;13.60;99.90;;;;;;5012747;28;20052;-69
2023/09/19 06:02:56;;;;;;;10.85;2.85;;;13.60;99.90;;;;;;5035933;28;20534;-69
2023/09/19 06:05:24;;;;;;;11.50;1.92;;;13.60;99.90;;;;;;5018399;28;20052;-68
2023/09/19 06:07:50;;;;;;;8.25;2.55;;;13.70;99.90;;;;;;5035772;28;20033;-68
2023/09/19 06:10:17;;;;;;;10.20;2.13;;;13.70;99.90;;;;;;5036085;28;20051;-69
2023/09/19 06:12:44;;;;;;;8.50;2.30;;;13.70;99.90;;;;;;5053133;28;20037;-69
2023/09/19 06:15:15;;;;;;;9.98;2.22;;;13.80;99.90;;;;;;5035766;28;20044;-69
2023/09/19 06:17:47;;;;;;;11.57;3.17;;;13.80;99.90;;;;;;5035433;28;20096;-69
2023/09/19 06:20:13;;;;;;;9.65;2.80;;;13.80;99.90;;;;;;5035364;28;20057;-69
2023/09/19 06:22:43;;;;;;;7.90;1.92;;;13.80;99.90;;;;;;5035957;28;20458;-68
2023/09/19 06:25:15;;;;;;;24.23;4.38;;;13.90;99.90;;;;;;5035781;28;20059;-68
2023/09/19 06:27:42;;;;;;;10.00;3.63;;;13.90;99.90;;;;;;5014935;28;20030;-68
2023/09/19 06:30:09;;;;;;;13.18;4.00;;;13.90;99.90;;;;;;5032261;28;20045;-69
2023/09/19 06:32:35;;;;;;;17.98;8.77;;;14.00;99.90;;;;;;5031145;28;20041;-68
2023/09/19 06:35:02;;;;;;;9.77;2.85;;;14.00;99.90;;;;;;5019182;28;20049;-68
2023/09/19 06:37:29;;;;;;;14.55;2.97;;;14.10;99.90;;;;;;5035114;28;20131;-69
2023/09/19 06:39:55;;;;;;;11.80;2.55;;;14.10;99.90;;;;;;5034498;28;20052;-69
2023/09/19 06:42:22;;;;;;;6.85;2.65;;;14.20;99.90;;;;;;5034682;28;20037;-69
2023/09/19 06:44:48;;;;;;;9.55;2.45;;;14.20;99.90;;;;;;5034978;28;20052;-69
2023/09/19 06:47:16;;;;;;;6.80;2.53;;;14.20;99.90;;;;;;5034233;28;20513;-69
2023/09/19 06:49:47;;;;;;;11.15;3.58;;;14.30;99.90;;;;;;5017701;28;20809;-69
2023/09/19 06:52:14;;;;;;;6.32;2.20;;;14.30;99.90;;;;;;5035006;28;20052;-69
2023/09/19 06:54:41;;;;;;;6.53;2.30;;;14.30;99.90;;;;;;5051091;28;20158;-69
2023/09/19 06:57:09;;;;;;;8.68;2.47;;;14.40;99.90;;;;;;5030793;28;20452;-69
2023/09/19 06:59:36;;;;;;;8.18;3.00;;;14.40;99.90;;;;;;5033608;28;20509;-69
2023/09/19 07:02:01;;;;;;;8.45;2.15;;;14.40;99.90;;;;;;5034187;28;20045;-69
2023/09/19 07:04:27;;;;;;;8.63;2.50;;;14.50;99.90;;;;;;5034496;28;20175;-69
2023/09/19 07:06:53;;;;;;;9.10;2.55;;;14.50;99.90;;;;;;5032236;28;20041;-69
2023/09/19 07:09:22;;;;;;;8.93;2.20;;;14.60;99.90;;;;;;5033404;28;20517;-69
2023/09/19 07:11:50;;;;;;;7.38;2.13;;;14.60;99.90;;;;;;5034713;28;20049;-69
2023/09/19 07:14:16;;;;;;;8.27;2.00;;;14.70;99.90;;;;;;5034504;28;20053;-69
2023/09/19 07:16:44;;;;;;;8.13;2.30;;;14.80;99.90;;;;;;5033731;28;20494;-69
2023/09/19 07:19:10;;;;;;;9.55;2.65;;;14.80;99.90;;;;;;5052503;28;20367;-69
2023/09/19 07:21:37;;;;;;;11.88;2.78;;;14.90;99.90;;;;;;5034181;28;20474;-69
2023/09/19 07:24:03;;;;;;;8.40;2.17;;;14.90;99.90;;;;;;5034205;28;20383;-70
2023/09/19 07:26:29;;;;;;;9.07;2.63;;;14.90;99.90;;;;;;5034041;28;20103;-69
2023/09/19 07:28:56;;;;;;;8.95;2.35;;;14.90;99.90;;;;;;5033561;28;20091;-69
2023/09/19 07:31:22;;;;;;;12.48;3.95;;;14.90;99.90;;;;;;5034376;28;20121;-69
2023/09/19 07:33:48;;;;;;;11.43;2.28;;;15.00;99.90;;;;;;5034059;28;20573;-70
2023/09/19 07:36:14;;;;;;;11.07;2.85;;;15.10;99.90;;;;;;5033385;28;20094;-69
2023/09/19 07:38:41;;;;;;;13.48;2.92;;;15.10;99.90;;;;;;5034409;28;20045;-69
2023/09/19 07:41:08;;;;;;;8.27;2.10;;;15.20;99.90;;;;;;5051370;28;20045;-70
2023/09/19 07:43:40;;;;;;;17.17;2.88;;;15.30;99.90;;;;;;5033175;28;20426;-69
2023/09/19 07:46:09;;;;;;;8.43;2.50;;;15.40;99.90;;;;;;5034691;28;20432;-69
2023/09/19 07:48:36;;;;;;;7.75;2.25;;;15.50;99.90;;;;;;5051939;28;20455;-69
2023/09/19 07:51:06;;;;;;;9.40;2.90;;;15.50;99.90;;;;;;5028162;28;20041;-69
2023/09/19 07:53:34;;;;;;;10.60;2.22;;;15.50;99.90;;;;;;5029711;28;20111;-69
2023/09/19 07:56:08;;;;;;;10.00;2.38;;;15.60;99.90;;;;;;5030868;28;20079;-69
2023/09/19 07:58:35;;;;;;;10.65;2.40;;;15.60;99.90;;;;;;5030582;28;20057;-70
2023/09/19 08:01:08;;;;;;;10.77;2.20;;;15.60;99.90;;;;;;5031473;28;20056;-70
2023/09/19 08:03:34;;;;;;;8.30;2.38;;;15.60;99.90;;;;;;5030029;28;20041;-69
2023/09/19 08:06:01;;;;;;;9.18;2.65;;;15.70;99.90;;;;;;5030282;28;20037;-70
2023/09/19 08:08:27;;;;;;;8.88;2.78;;;15.80;99.90;;;;;;5031043;28;20049;-69
2023/09/19 08:10:57;;;;;;;10.30;2.58;;;15.80;99.90;;;;;;5036568;28;20041;-70
2023/09/19 08:13:26;;;;;;;8.70;2.72;;;15.90;99.90;;;;;;5016495;28;20284;-69
2023/09/19 08:15:55;;;;;;;8.75;2.78;;;16.00;99.90;;;;;;5015596;28;20056;-70
2023/09/19 08:18:22;;;;;;;15.57;3.53;;;16.00;99.90;;;;;;5028257;28;20060;-70
2023/09/19 08:20:52;;;;;;;16.60;3.35;;;16.20;99.90;;;;;;5033213;28;20053;-70
2023/09/19 08:23:20;;;;;;;12.52;3.03;;;16.20;99.90;;;;;;5034970;28;20432;-70
2023/09/19 08:25:48;;;;;;;11.13;2.90;;;16.20;99.90;;;;;;5035503;28;20078;-70
2023/09/19 08:28:18;;;;;;;9.18;2.60;;;16.30;99.90;;;;;;5001698;28;20135;-70
2023/09/19 08:30:47;;;;;;;9.05;2.97;;;16.30;99.90;;;;;;5034754;28;20041;-70
2023/09/19 08:33:15;;;;;;;8.30;2.95;;;16.30;99.90;;;;;;5033959;28;20478;-70
2023/09/19 08:35:43;;;;;;;14.15;3.20;;;16.30;99.90;;;;;;5036950;28;20041;-70
2023/09/19 08:38:11;;;;;;;14.02;3.47;;;16.40;99.90;;;;;;5038250;28;20097;-70
2023/09/19 08:40:40;;;;;;;10.13;2.40;;;16.40;99.90;;;;;;5037170;28;20040;-69
2023/09/19 08:43:07;;;;;;;9.52;2.58;;;16.40;99.90;;;;;;5021751;28;20751;-70
2023/09/19 08:45:33;;;;;;;12.57;3.03;;;16.50;99.90;;;;;;5021430;28;20040;-70
2023/09/19 08:48:28;;;;;;;8.13;2.63;;;16.50;99.90;;;;;;5037258;28;20037;-71
2023/09/19 08:51:06;;;;;;;11.17;2.20;;;16.60;99.90;;;;;;5038986;28;20098;-69
2023/09/19 08:53:46;;;;;;;14.73;2.85;;;16.70;99.90;;;;;;5057625;28;20051;-68
2023/09/19 08:56:13;;;;;;;10.27;2.65;;;16.70;99.90;;;;;;5023385;28;20044;-69
2023/09/19 08:58:53;;;;;;;6.78;1.92;;;16.80;99.90;;;;;;5040529;28;20425;-71
2023/09/19 09:01:24;;;;;;;12.98;3.33;;;16.80;99.90;;;;;;5057262;28;20037;-69
2023/09/19 09:03:54;;;;;;;6.57;2.63;;;16.90;99.90;;;;;;5057852;28;20119;-70
2023/09/19 09:06:20;;;;;;;12.48;3.08;;;16.90;99.90;;;;;;5039684;28;20551;-69
2023/09/19 09:08:47;;;;;;;13.07;2.60;;;17.00;99.90;;;;;;5039239;28;20075;-70
2023/09/19 09:11:15;;;;;;;13.80;3.42;;;17.00;99.90;;;;;;5040028;28;20044;-69
2023/09/19 09:13:41;;;;;;;9.05;2.50;;;17.00;99.90;;;;;;5040144;28;20457;-70
2023/09/19 09:16:09;;;;;;;13.80;3.33;;;17.10;99.90;;;;;;5022573;28;20036;-70
2023/09/19 09:18:35;;;;;;;15.45;3.78;;;17.10;99.90;;;;;;5053579;28;20093;-69
2023/09/19 09:21:01;;;;;;;10.00;2.65;;;17.10;99.90;;;;;;5054461;28;20045;-69
2023/09/19 09:23:29;;;;;;;10.73;3.10;;;17.20;99.90;;;;;;5052673;28;20398;-69
2023/09/19 09:26:02;;;;;;;9.40;2.72;;;17.20;99.90;;;;;;5053741;28;20475;-70
2023/09/19 09:28:30;;;;;;;8.80;2.97;;;17.20;99.90;;;;;;5052262;28;20086;-69
2023/09/19 09:31:00;;;;;;;13.00;3.03;;;17.30;99.90;;;;;;5053509;28;20192;-69
2023/09/19 09:33:28;;;;;;;11.48;2.97;;;17.30;99.90;;;;;;5053418;28;20044;-69
2023/09/19 09:36:02;;;;;;;8.27;2.80;;;17.30;99.90;;;;;;5052836;28;20111;-70
2023/09/19 09:38:49;;;;;;;12.57;3.20;;;17.40;99.90;;;;;;5053202;28;20045;-69
2023/09/19 09:41:27;;;;;;;7.78;2.78;;;17.50;99.90;;;;;;5052529;28;20053;-69
2023/09/19 09:43:53;;;;;;;7.90;2.42;;;17.50;99.90;;;;;;5052302;28;20486;-69
2023/09/19 09:49:14;;;;;;;10.05;3.15;;;17.60;99.90;;;;;;5052919;28;20063;-69
2023/09/19 09:51:45;;;;;;;11.88;3.20;;;17.80;99.90;;;;;;5051994;28;20049;-70
2023/09/19 09:54:15;;;;;;;8.40;3.15;;;17.90;99.90;;;;;;5036254;28;20052;-69
2023/09/19 09:56:59;;;;;;;11.23;2.95;;;18.00;99.90;;;;;;5052202;28;20640;-70
2023/09/19 10:00:20;;;;;;;9.13;2.53;;;18.00;99.90;;;;;;5053049;28;20044;-69
2023/09/19 10:02:46;;;;;;;14.77;3.47;;;18.00;99.90;;;;;;5021386;28;20052;-70
2023/09/19 10:08:08;;;;;;;12.60;3.03;;;18.00;99.90;;;;;;5052482;28;20048;-69
2023/09/19 10:13:07;;;;;;;14.85;3.67;;;18.00;99.90;;;;;;5053042;28;20056;-70
2023/09/19 10:15:33;;;;;;;10.55;3.00;;;18.00;99.90;;;;;;5052625;28;20390;-69
2023/09/19 10:18:08;;;;;;;9.00;3.58;;;18.00;99.90;;;;;;5051606;28;20053;-70
2023/09/19 10:20:38;;;;;;;11.60;3.17;;;17.90;99.90;;;;;;5052438;28;20048;-69
2023/09/19 10:23:12;;;;;;;17.38;3.58;;;17.80;99.90;;;;;;5054105;28;20048;-69
2023/09/19 10:25:42;;;;;;;10.63;3.42;;;17.70;99.90;;;;;;5051784;28;20442;-71
2023/09/19 10:28:13;;;;;;;10.68;3.10;;;17.70;99.90;;;;;;5035656;28;20486;-69
2023/09/19 10:30:47;;;;;;;10.48;3.58;;;17.80;99.90;;;;;;5052433;28;20136;-70
2023/09/19 10:33:26;;;;;;;13.93;3.90;;;17.90;99.90;;;;;;5050870;28;20045;-70
2023/09/19 10:35:55;;;;;;;12.95;3.22;;;17.90;99.90;;;;;;5035706;28;20148;-71
2023/09/19 10:38:24;;;;;;;9.77;3.30;;;18.00;99.90;;;;;;5048718;28;20037;-71
2023/09/19 10:40:52;;;;;;;16.05;3.95;;;18.00;99.90;;;;;;5044006;28;20041;-73
2023/09/19 10:43:20;;;;;;;10.07;4.72;;;18.10;99.90;;;;;;5034830;28;20045;-71
2023/09/19 10:45:49;;;;;;;14.65;3.22;;;18.00;99.90;;;;;;5034396;28;20076;-69
2023/09/19 10:48:19;;;;;;;10.68;3.63;;;18.00;99.90;;;;;;5031571;28;20040;-69
2023/09/19 10:51:09;;;;;;;15.25;4.22;;;18.00;99.90;;;;;;5015920;28;20090;-69
2023/09/19 10:53:55;;;;;;;15.02;3.60;;;18.00;99.90;;;;;;5030150;28;20048;-69
2023/09/19 10:56:37;;;;;;;9.43;3.20;;;17.90;99.90;;;;;;5032348;28;20130;-70
2023/09/19 10:59:15;;;;;;;13.75;4.28;;;17.90;99.90;;;;;;5030629;28;20052;-70
2023/09/19 11:01:53;;;;;;;11.23;3.35;;;17.80;99.90;;;;;;5030768;28;20076;-70
2023/09/19 11:04:38;;;;;;;10.95;3.95;;;17.70;99.90;;;;;;5031012;28;20072;-69
2023/09/19 11:07:04;;;;;;;11.73;3.70;;;17.70;99.90;;;;;;5013262;28;20044;-69
2023/09/19 11:10:01;;;;;;;12.65;4.70;;;17.50;99.90;;;;;;5036950;28;20041;-68
2023/09/19 11:12:40;;;;;;;12.20;4.13;;;17.50;99.90;;;;;;5041488;28;20071;-68
2023/09/19 11:16:00;;;;;;;15.60;3.70;;;17.50;99.90;;;;;;5048706;28;20048;-68
2023/09/19 11:18:41;;;;;;;11.68;3.53;;;17.60;99.90;;;;;;5028104;28;20069;-69
2023/09/19 11:21:33;;;;;;;12.15;3.78;;;17.60;99.90;;;;;;5027862;28;20053;-68
2023/09/19 11:24:24;;;;;;;10.40;3.78;;;17.60;99.90;;;;;;5027741;28;20525;-68
2023/09/19 11:26:50;;;;;;;10.88;3.47;;;17.60;99.90;;;;;;5012052;28;20482;-68
2023/09/19 11:29:26;;;;;;;9.82;3.50;;;17.60;99.90;;;;;;5028205;28;20045;-68
2023/09/19 11:31:55;;;;;;;11.70;3.65;;;17.60;99.90;;;;;;5028928;28;20103;-68
2023/09/19 11:34:36;;;;;;;17.17;4.85;;;17.50;99.90;;;;;;5012043;28;20102;-68
2023/09/19 11:37:06;;;;;;;13.70;4.43;;;17.50;99.90;;;;;;5028487;28;20385;-69
2023/09/19 11:39:32;;;;;;;13.30;3.30;;;17.50;99.90;;;;;;5011867;28;20041;-68
2023/09/19 11:42:00;;;;;;;10.77;3.72;;;17.50;99.90;;;;;;5011923;28;20056;-68
2023/09/19 11:44:26;;;;;;;10.10;3.75;;;17.50;99.90;;;;;;5024589;28;20049;-69
2023/09/19 11:46:54;;;;;;;11.05;3.65;;;17.40;99.90;;;;;;5027370;28;20402;-69
2023/09/19 11:49:31;;;;;;;13.45;3.63;;;17.40;99.90;;;;;;5027875;28;20543;-68
2023/09/19 11:51:59;;;;;;;12.32;4.03;;;17.40;99.90;;;;;;5028468;28;20142;-68
2023/09/19 11:54:28;;;;;;;14.30;3.50;;;17.30;99.90;;;;;;5027981;28;20053;-69
2023/09/19 11:56:54;;;;;;;14.27;4.32;;;17.20;99.90;;;;;;5011008;28;20132;-68
2023/09/19 11:59:29;;;;;;;10.43;3.70;;;17.10;99.90;;;;;;5009461;28;20136;-67
2023/09/19 12:02:10;;;;;;;9.13;3.47;;;17.10;99.90;;;;;;5019519;28;20056;-69
2023/09/19 12:04:43;;;;;;;12.30;3.78;;;16.90;99.90;;;;;;5015537;28;20057;-68
2023/09/19 12:07:16;;;;;;;15.70;4.15;;;16.70;99.90;;;;;;5021756;28;20075;-68
2023/09/19 12:09:49;;;;;;;13.88;3.88;;;16.50;99.90;;;;;;5009945;28;20482;-67
2023/09/19 12:12:26;;;;;;;10.57;4.15;;;16.40;99.90;;;;;;5023272;28;20037;-67
2023/09/19 12:14:53;;;;;;;14.80;3.65;;;16.30;99.90;;;;;;5027549;28;20060;-67
2023/09/19 12:17:22;;;;;;;8.25;3.50;;;16.30;99.90;;;;;;5033947;28;20647;-68
2023/09/19 12:19:56;;;;;;;10.15;4.00;;;16.30;99.90;;;;;;5030627;28;20572;-67
2023/09/19 12:22:22;;;;;;;10.98;3.72;;;16.40;99.90;;;;;;5029770;28;20033;-67
2023/09/19 12:24:50;;;;;;;12.07;3.85;;;16.50;99.90;;;;;;5029701;28;20091;-67
2023/09/19 12:27:16;;;;;;;12.55;3.30;;;16.60;99.90;;;;;;5030143;28;20141;-68
2023/09/19 12:29:48;;;;;;;14.70;4.28;;;16.70;99.90;;;;;;5028327;28;20045;-67
2023/09/19 12:32:17;;;;;;;7.28;3.20;;;16.90;99.90;;;;;;5024630;28;20116;-67
2023/09/19 12:34:49;;;;;;;12.88;3.80;;;17.00;99.90;;;;;;5030367;28;20049;-67
2023/09/19 12:37:20;;;;;;;8.15;2.85;;;17.00;99.90;;;;;;5029662;28;20059;-68
2023/09/19 12:39:53;;;;;;;11.23;3.50;;;17.20;99.90;;;;;;5029666;28;20044;-67
2023/09/19 12:42:32;;;;;;;9.35;3.35;;;17.30;99.90;;;;;;5027554;28;20059;-68
2023/09/19 12:45:00;;;;;;;6.05;2.80;;;17.30;99.90;;;;;;5023369;28;20053;-68
2023/09/19 12:47:29;;;;;;;8.00;3.58;;;17.30;99.90;;;;;;5023175;28;20589;-67
2023/09/19 12:50:13;;;;;;;10.93;2.97;;;17.40;99.90;;;;;;5030727;28;20045;-68
2023/09/19 12:52:48;;;;;;;10.13;2.75;;;17.30;99.90;;;;;;5028964;28;20152;-68
2023/09/19 12:55:28;;;;;;;8.98;3.33;;;17.30;99.90;;;;;;5016623;28;20098;-67
2023/09/19 12:58:07;;;;;;;8.50;2.58;;;17.20;99.90;;;;;;5032013;28;20053;-67
2023/09/19 13:27:00;;;;;;;7.63;2.25;;;17.20;99.90;;;;;;5028902;28;20136;-67
2023/09/19 13:29:25;;;;;;;10.68;2.90;;;17.30;99.90;;;;;;5022094;28;20152;-67